Time;durP1;ratioP1;P1;durP2;ratioP2;P2;SDS_P1;SDS_P2;PMS_P1;PMS_P2;Temp;Humidity;BMP_temperature;BMP_pressure;BME280_temperature;BME280_humidity;BME280_pressure;Samples;Min_cycle;Max_cycle;Signal;HPM_P1;HPM_P2
2023/04/08 00:01:11;;;;;;;4.25;3.85;;;;;;;11.28;77.95;100721.97;5031802;28;20414;-76
2023/04/08 00:03:37;;;;;;;3.67;3.35;;;;;;;11.29;78.01;100723.63;5025279;28;20392;-76
2023/04/08 00:06:03;;;;;;;3.83;3.43;;;;;;;11.30;77.73;100717.94;5019583;28;20399;-76
2023/04/08 00:08:29;;;;;;;4.93;3.95;;;;;;;11.29;77.77;100724.44;5017620;28;20397;-76
2023/04/08 00:10:54;;;;;;;3.92;3.63;;;;;;;11.24;78.24;100728.94;5015260;28;20744;-76
2023/04/08 00:13:20;;;;;;;4.57;3.67;;;;;;;11.25;78.14;100727.88;5026150;28;20393;-76
2023/04/08 00:15:45;;;;;;;6.23;3.83;;;;;;;11.23;78.15;100730.03;5022705;28;20440;-76
2023/04/08 00:18:14;;;;;;;4.30;3.90;;;;;;;11.22;78.20;100725.66;5017366;28;20475;-76
2023/04/08 00:20:39;;;;;;;3.88;3.58;;;;;;;11.20;78.30;100725.06;5028993;28;20411;-76
2023/04/08 00:23:05;;;;;;;4.97;4.43;;;;;;;11.19;78.02;100724.25;5031712;28;20748;-76
2023/04/08 00:25:30;;;;;;;5.13;4.57;;;;;;;11.17;78.46;100730.97;5022725;28;20409;-76
2023/04/08 00:27:55;;;;;;;5.17;4.60;;;;;;;11.15;78.45;100728.50;5011252;28;20439;-76
2023/04/08 00:30:21;;;;;;;4.85;4.20;;;;;;;11.18;78.48;100728.03;5028510;28;20380;-76
2023/04/08 00:32:46;;;;;;;6.00;5.40;;;;;;;11.20;78.12;100725.88;5016606;28;20445;-76
2023/04/08 00:35:11;;;;;;;5.93;5.00;;;;;;;11.21;78.25;100724.00;5031923;28;20516;-76
2023/04/08 00:37:37;;;;;;;5.60;5.10;;;;;;;11.26;78.30;100727.63;5020412;28;20882;-76
2023/04/08 00:40:03;;;;;;;5.97;5.43;;;;;;;11.28;77.91;100728.22;5026912;28;20991;-76
2023/04/08 00:42:29;;;;;;;8.18;6.57;;;;;;;11.24;78.26;100727.03;5012678;28;20389;-76
2023/04/08 00:44:55;;;;;;;6.90;6.07;;;;;;;11.20;78.41;100719.63;5019490;28;20403;-76
2023/04/08 00:47:21;;;;;;;9.40;6.73;;;;;;;11.16;78.62;100726.63;5021050;28;20408;-76
2023/04/08 00:49:46;;;;;;;8.73;7.27;;;;;;;11.15;78.77;100727.69;5019257;28;20442;-76
2023/04/08 00:52:12;;;;;;;6.90;6.20;;;;;;;11.14;78.67;100718.72;5029518;28;20402;-76
2023/04/08 00:54:37;;;;;;;8.03;6.87;;;;;;;11.14;78.69;100728.75;5018257;28;20445;-76
2023/04/08 00:57:04;;;;;;;7.60;6.80;;;;;;;11.12;78.99;100736.31;5025541;28;20761;-76
2023/04/08 00:59:30;;;;;;;8.13;7.07;;;;;;;11.16;78.88;100734.75;5016951;28;20419;-75
2023/04/08 01:02:21;;;;;;;8.60;7.68;;;;;;;11.18;78.72;100741.59;5028703;28;20725;-76
2023/04/08 01:05:05;;;;;;;8.07;6.73;;;;;;;11.16;78.87;100732.88;5027197;28;20401;-75
2023/04/08 01:07:34;;;;;;;7.53;6.83;;;;;;;11.21;78.75;100732.13;5025643;28;20788;-75
2023/04/08 01:10:27;;;;;;;8.18;6.60;;;;;;;11.23;78.82;100736.25;5015711;28;20390;-76
2023/04/08 01:12:56;;;;;;;8.32;7.43;;;;;;;11.21;78.74;100737.56;5026297;28;20410;-75
2023/04/08 01:15:25;;;;;;;8.13;6.93;;;;;;;11.29;78.45;100737.19;5030663;28;20398;-76
2023/04/08 01:17:53;;;;;;;10.25;7.45;;;;;;;11.29;78.51;100739.91;5012226;28;20400;-76
2023/04/08 01:20:20;;;;;;;8.80;7.27;;;;;;;11.28;78.46;100739.06;5018323;28;20536;-76
2023/04/08 01:23:00;;;;;;;8.55;7.47;;;;;;;11.29;78.63;100737.19;5022860;28;20426;-76
2023/04/08 01:25:30;;;;;;;10.30;8.10;;;;;;;11.30;78.84;100736.94;5027249;28;20435;-76
2023/04/08 01:27:58;;;;;;;11.32;8.38;;;;;;;11.28;78.57;100743.66;5041438;28;20405;-76
2023/04/08 01:30:24;;;;;;;9.23;7.50;;;;;;;11.23;78.86;100740.88;5011656;28;20401;-76
2023/04/08 01:32:53;;;;;;;10.85;8.10;;;;;;;11.26;78.66;100737.66;5012471;28;20396;-76
2023/04/08 01:35:18;;;;;;;9.13;7.75;;;;;;;11.29;78.88;100735.31;5028681;28;20781;-76
2023/04/08 01:37:44;;;;;;;10.40;8.07;;;;;;;11.32;78.43;100740.25;5026453;28;20415;-75
2023/04/08 01:40:10;;;;;;;9.23;8.20;;;;;;;11.32;78.65;100740.25;5020052;28;20411;-76
2023/04/08 01:42:36;;;;;;;11.20;8.63;;;;;;;11.34;78.61;100734.56;5018790;28;20885;-76
2023/04/08 01:45:03;;;;;;;9.68;8.45;;;;;;;11.27;78.60;100731.97;5011883;28;20424;-76
2023/04/08 01:47:30;;;;;;;12.75;8.80;;;;;;;11.28;78.80;100735.53;5027005;28;20919;-76
2023/04/08 01:49:56;;;;;;;12.18;9.23;;;;;;;11.28;78.65;100732.81;5028582;28;20786;-76
2023/04/08 01:52:24;;;;;;;10.10;8.80;;;;;;;11.28;78.63;100724.69;5020984;28;20468;-76
2023/04/08 01:54:49;;;;;;;10.82;8.65;;;;;;;11.28;78.51;100728.22;5031090;28;20738;-75
2023/04/08 01:57:20;;;;;;;10.13;8.50;;;;;;;11.31;78.27;100729.63;5015259;28;20396;-76
2023/04/08 01:59:50;;;;;;;11.15;8.43;;;;;;;11.31;78.26;100732.31;5022782;28;20409;-76
2023/04/08 02:02:18;;;;;;;11.18;8.43;;;;;;;11.28;78.21;100728.22;5024376;28;20387;-76
2023/04/08 02:04:44;;;;;;;8.90;7.35;;;;;;;11.25;78.26;100722.44;5014497;28;20845;-76
2023/04/08 02:07:10;;;;;;;8.85;7.20;;;;;;;11.20;78.69;100723.16;5026357;28;20428;-76
2023/04/08 02:09:36;;;;;;;8.60;6.60;;;;;;;11.20;78.66;100730.47;5011263;28;20397;-76
2023/04/08 02:12:01;;;;;;;8.57;7.32;;;;;;;11.19;78.81;100723.44;5025535;28;20433;-75
2023/04/08 02:14:27;;;;;;;8.40;7.23;;;;;;;11.13;79.38;100733.34;5019320;28;20392;-76
2023/04/08 02:17:00;;;;;;;10.00;7.40;;;;;;;11.16;79.16;100724.75;5030981;28;20450;-76
2023/04/08 02:19:35;;;;;;;8.23;7.40;;;;;;;11.13;79.13;100735.25;5024814;28;20859;-76
2023/04/08 02:22:06;;;;;;;9.80;7.80;;;;;;;11.08;79.50;100735.13;5015492;28;20734;-76
2023/04/08 02:24:34;;;;;;;10.10;8.45;;;;;;;10.98;79.72;100735.75;5016369;28;20740;-76
2023/04/08 02:27:02;;;;;;;10.63;8.50;;;;;;;10.90;79.83;100736.94;5028599;28;20450;-76
2023/04/08 02:29:30;;;;;;;11.82;9.20;;;;;;;10.86;80.24;100735.81;5024633;28;20797;-76
2023/04/08 02:31:56;;;;;;;12.20;9.13;;;;;;;10.82;80.42;100731.91;5026954;28;20406;-76
2023/04/08 02:34:23;;;;;;;12.82;8.70;;;;;;;10.84;80.79;100728.94;5034111;28;20461;-76
2023/04/08 02:36:50;;;;;;;10.73;8.57;;;;;;;10.84;80.47;100734.38;5026685;28;20395;-76
2023/04/08 02:39:15;;;;;;;10.90;8.65;;;;;;;10.83;80.30;100733.53;5025220;28;20428;-76
2023/04/08 02:41:41;;;;;;;11.07;9.00;;;;;;;10.79;80.53;100735.09;5014420;28;20448;-76
2023/04/08 02:44:06;;;;;;;9.38;8.38;;;;;;;10.84;80.28;100731.66;5030578;28;20487;-76
2023/04/08 02:46:31;;;;;;;10.03;8.80;;;;;;;10.85;80.33;100733.31;5018694;28;20770;-76
2023/04/08 02:48:56;;;;;;;9.73;8.73;;;;;;;10.86;79.97;100733.09;5025761;28;20401;-76
2023/04/08 02:51:22;;;;;;;11.30;8.53;;;;;;;10.78;80.39;100724.50;5014192;28;20401;-76
2023/04/08 02:53:47;;;;;;;11.33;8.07;;;;;;;10.71;80.72;100727.34;5029891;28;20442;-76
2023/04/08 02:56:12;;;;;;;10.67;8.10;;;;;;;10.69;80.94;100725.94;5014933;28;20522;-76
2023/04/08 02:58:37;;;;;;;9.87;7.93;;;;;;;10.72;80.73;100731.69;5012960;28;20405;-76
2023/04/08 03:01:03;;;;;;;12.03;8.57;;;;;;;10.74;80.74;100728.75;5017385;28;20423;-76
2023/04/08 03:03:29;;;;;;;10.10;8.90;;;;;;;10.73;80.58;100732.53;5019378;28;20471;-76
2023/04/08 03:05:55;;;;;;;12.23;8.80;;;;;;;10.75;80.81;100731.22;5030076;28;20494;-76
2023/04/08 03:08:20;;;;;;;11.63;9.27;;;;;;;10.78;80.56;100730.75;5020033;28;20402;-76
2023/04/08 03:10:46;;;;;;;11.93;9.43;;;;;;;10.71;80.86;100730.03;5023960;28;20401;-76
2023/04/08 03:13:11;;;;;;;10.75;9.15;;;;;;;10.74;80.85;100734.16;5026712;28;20391;-76
2023/04/08 03:15:37;;;;;;;13.40;9.10;;;;;;;10.75;80.67;100733.94;5019043;28;20404;-76
2023/04/08 03:18:02;;;;;;;10.60;8.52;;;;;;;10.78;80.44;100736.16;5029060;28;20804;-76
2023/04/08 03:20:27;;;;;;;11.90;9.07;;;;;;;10.76;80.80;100732.88;5022456;28;20874;-76
2023/04/08 03:22:53;;;;;;;12.63;9.37;;;;;;;10.76;80.70;100732.88;5019963;28;20875;-76
2023/04/08 03:25:18;;;;;;;10.60;9.23;;;;;;;10.73;80.68;100732.53;5028301;28;20395;-76
2023/04/08 03:27:43;;;;;;;11.43;9.13;;;;;;;10.72;80.72;100731.69;5017516;28;20395;-76
2023/04/08 03:30:09;;;;;;;11.67;9.37;;;;;;;10.73;80.73;100737.97;5028614;28;20403;-76
2023/04/08 03:32:34;;;;;;;11.03;9.73;;;;;;;10.73;80.71;100730.66;5048791;28;20391;-76
2023/04/08 03:34:59;;;;;;;11.33;10.13;;;;;;;10.70;81.02;100741.16;5030947;28;20389;-76
2023/04/08 03:37:25;;;;;;;12.40;10.60;;;;;;;10.70;80.72;100736.53;5030493;28;21037;-76
2023/04/08 03:39:50;;;;;;;12.80;10.27;;;;;;;10.63;81.13;100741.28;5019862;28;20415;-76
2023/04/08 03:42:15;;;;;;;13.77;10.60;;;;;;;10.69;80.94;100742.19;5023109;28;20397;-76
2023/04/08 03:44:40;;;;;;;13.97;9.63;;;;;;;10.71;80.61;100740.88;5026862;28;20407;-76
2023/04/08 03:47:06;;;;;;;12.02;9.98;;;;;;;10.74;80.53;100748.53;5028821;28;20471;-76
2023/04/08 03:49:31;;;;;;;11.60;9.97;;;;;;;10.71;80.48;100742.78;5018362;28;20406;-76
2023/04/08 03:51:56;;;;;;;12.87;9.97;;;;;;;10.66;80.90;100742.69;5027238;28;20403;-76
2023/04/08 03:54:22;;;;;;;12.53;9.70;;;;;;;10.65;81.04;100741.03;5019178;28;20404;-76
2023/04/08 03:56:48;;;;;;;14.13;10.40;;;;;;;10.66;80.88;100746.22;5029276;28;20453;-76
2023/04/08 03:59:14;;;;;;;13.60;10.50;;;;;;;10.69;80.73;100742.19;5019859;28;20504;-76
2023/04/08 04:01:39;;;;;;;12.25;10.48;;;;;;;10.69;80.79;100744.91;5020888;28;20470;-76
2023/04/08 04:04:05;;;;;;;12.57;10.70;;;;;;;10.67;80.75;100747.03;5021684;28;20395;-76
2023/04/08 04:06:30;;;;;;;14.27;10.87;;;;;;;10.65;81.04;100743.72;5012903;28;20397;-76
2023/04/08 04:08:55;;;;;;;13.80;10.40;;;;;;;10.60;80.58;100741.75;5043968;28;20405;-76
2023/04/08 04:11:21;;;;;;;13.03;10.07;;;;;;;10.55;81.17;100743.50;5031521;28;20780;-76
2023/04/08 04:13:46;;;;;;;13.98;10.73;;;;;;;10.55;81.16;100744.34;5013724;28;20399;-76
2023/04/08 04:16:12;;;;;;;13.17;10.90;;;;;;;10.58;81.09;100743.84;5012809;28;20748;-76
2023/04/08 04:18:37;;;;;;;11.97;10.50;;;;;;;10.59;80.94;100744.69;5042667;28;20408;-76
2023/04/08 04:21:08;;;;;;;14.17;10.70;;;;;;;10.57;80.88;100741.41;5017315;28;20420;-76
2023/04/08 04:23:33;;;;;;;14.13;11.27;;;;;;;10.57;81.06;100747.63;5022546;28;20791;-76
2023/04/08 04:25:59;;;;;;;13.33;11.13;;;;;;;10.61;80.87;100745.25;5012666;28;20409;-76
2023/04/08 04:28:24;;;;;;;12.33;10.43;;;;;;;10.58;80.43;100746.56;5028331;28;20754;-76
2023/04/08 04:30:49;;;;;;;14.93;10.63;;;;;;;10.53;80.71;100745.66;5026588;28;20434;-76
2023/04/08 04:33:14;;;;;;;12.57;10.70;;;;;;;10.55;80.48;100760.59;5023311;28;20931;-76
2023/04/08 04:35:40;;;;;;;14.27;11.27;;;;;;;10.57;80.42;100753.03;5029067;28;20395;-76
2023/04/08 04:38:11;;;;;;;14.53;11.63;;;;;;;10.53;80.70;100756.47;5016422;28;20905;-76
2023/04/08 04:40:38;;;;;;;13.27;11.80;;;;;;;10.55;80.88;100757.06;5016989;28;20501;-76
2023/04/08 04:43:03;;;;;;;15.43;11.43;;;;;;;10.57;80.69;100757.66;5022042;28;20455;-76
2023/04/08 04:45:29;;;;;;;13.87;12.20;;;;;;;10.58;80.38;100762.84;5012319;28;20389;-76
2023/04/08 04:47:54;;;;;;;14.70;12.07;;;;;;;10.55;80.90;100759.75;5028358;28;20402;-76
2023/04/08 04:50:19;;;;;;;12.83;10.73;;;;;;;10.56;80.84;100764.97;5015927;28;20422;-76
2023/04/08 04:52:45;;;;;;;14.80;12.13;;;;;;;10.52;81.05;100774.63;5024474;28;20427;-76
2023/04/08 04:55:10;;;;;;;16.80;12.18;;;;;;;10.48;80.89;100775.31;5022501;28;20382;-75
2023/04/08 04:57:35;;;;;;;14.80;12.47;;;;;;;10.49;81.08;100772.38;5031787;28;20395;-76
2023/04/08 05:00:01;;;;;;;16.15;13.00;;;;;;;10.51;81.10;100774.84;5015714;28;20737;-76
2023/04/08 05:02:26;;;;;;;15.80;12.37;;;;;;;10.55;81.18;100774.16;5025443;28;20393;-76
2023/04/08 05:04:54;;;;;;;15.43;12.50;;;;;;;10.52;81.25;100771.91;5019908;28;20425;-76
2023/04/08 05:07:20;;;;;;;14.55;12.40;;;;;;;10.51;80.90;100774.84;5020107;28;20400;-76
2023/04/08 05:09:45;;;;;;;16.42;12.93;;;;;;;10.48;81.01;100770.72;5028377;28;20396;-76
2023/04/08 05:12:11;;;;;;;19.13;13.93;;;;;;;10.45;81.16;100773.09;5020460;28;20478;-76
2023/04/08 05:14:36;;;;;;;17.43;12.70;;;;;;;10.46;81.41;100778.28;5013333;28;20787;-76
2023/04/08 05:17:02;;;;;;;15.95;12.57;;;;;;;10.50;81.25;100786.75;5032702;28;20397;-75
2023/04/08 05:19:27;;;;;;;18.27;13.63;;;;;;;10.49;81.46;100782.41;5043048;28;20415;-76
2023/04/08 05:21:52;;;;;;;16.52;13.55;;;;;;;10.50;81.35;100792.19;5016402;28;20383;-76
2023/04/08 05:24:17;;;;;;;16.90;12.97;;;;;;;10.52;81.22;100780.03;5038451;28;20447;-76
2023/04/08 05:26:43;;;;;;;20.67;13.73;;;;;;;10.55;81.06;100787.69;5026644;28;20427;-76
2023/04/08 05:29:08;;;;;;;21.40;14.87;;;;;;;10.55;81.01;100789.56;5015232;28;20400;-76
2023/04/08 05:31:33;;;;;;;22.00;14.93;;;;;;;10.53;81.23;100784.41;5026940;28;20409;-76
2023/04/08 05:33:58;;;;;;;23.98;15.48;;;;;;;10.55;81.09;100790.41;5048015;28;20545;-76
2023/04/08 05:36:25;;;;;;;19.53;14.93;;;;;;;10.53;81.26;100797.97;5018874;28;20413;-76
2023/04/08 05:38:50;;;;;;;19.07;14.60;;;;;;;10.52;81.43;100799.00;5026887;28;20410;-76
2023/04/08 05:41:15;;;;;;;21.00;15.23;;;;;;;10.53;81.56;100799.84;5028389;28;20419;-76
2023/04/08 05:43:40;;;;;;;17.10;13.83;;;;;;;10.57;81.43;100803.72;5025698;28;20416;-76
2023/04/08 05:46:08;;;;;;;18.87;15.13;;;;;;;10.61;81.30;100805.72;5016124;28;20860;-76
2023/04/08 05:48:33;;;;;;;19.65;15.32;;;;;;;10.66;81.14;100805.00;5022109;28;20400;-76
2023/04/08 05:50:59;;;;;;;22.27;15.43;;;;;;;10.74;81.17;100810.06;5027137;28;20402;-76
2023/04/08 05:53:25;;;;;;;22.50;15.33;;;;;;;10.78;80.70;100808.53;5050145;28;20395;-76
2023/04/08 05:55:50;;;;;;;19.70;15.23;;;;;;;10.86;80.73;100810.88;5029176;28;20464;-76
2023/04/08 05:58:15;;;;;;;20.20;15.03;;;;;;;10.88;80.57;100809.59;5035075;28;20394;-76
2023/04/08 06:00:40;;;;;;;19.73;14.37;;;;;;;10.83;80.77;100814.09;5020751;28;20835;-76
2023/04/08 06:03:06;;;;;;;19.80;14.73;;;;;;;10.80;81.08;100815.34;5031742;28;20459;-76
2023/04/08 06:05:31;;;;;;;19.27;14.87;;;;;;;10.86;80.65;100816.31;5017824;28;20417;-76
2023/04/08 06:07:56;;;;;;;19.63;14.82;;;;;;;10.93;80.46;100825.16;5023678;28;20397;-76
2023/04/08 06:10:22;;;;;;;21.20;15.20;;;;;;;10.94;80.52;100824.06;5027499;28;20419;-76
2023/04/08 06:12:47;;;;;;;20.17;15.05;;;;;;;10.91;80.47;100825.38;5031923;28;20399;-76
2023/04/08 06:15:12;;;;;;;22.50;15.03;;;;;;;10.90;80.96;100831.84;5015920;28;20396;-76
2023/04/08 06:17:38;;;;;;;20.33;15.47;;;;;;;11.04;80.67;100826.16;5024881;28;20744;-76
2023/04/08 06:20:08;;;;;;;20.63;14.67;;;;;;;11.11;80.46;100832.28;5021146;28;20467;-76
2023/04/08 06:22:34;;;;;;;19.00;14.95;;;;;;;11.19;80.10;100829.22;5033037;28;20391;-76
2023/04/08 06:25:00;;;;;;;18.92;14.75;;;;;;;11.20;80.12;100825.41;5028507;28;20399;-76
2023/04/08 06:27:25;;;;;;;20.50;14.80;;;;;;;11.23;80.08;100839.34;5024288;28;20415;-75
2023/04/08 06:29:52;;;;;;;20.13;14.97;;;;;;;11.23;80.11;100827.69;5024265;28;20440;-75
2023/04/08 06:32:17;;;;;;;19.08;14.02;;;;;;;11.28;80.00;100825.06;5031435;28;20494;-74
2023/04/08 06:34:44;;;;;;;19.20;13.27;;;;;;;11.27;80.12;100829.66;5033365;28;20545;-76
2023/04/08 06:37:10;;;;;;;19.48;13.90;;;;;;;11.36;79.70;100833.63;5023721;28;20446;-73
2023/04/08 06:39:35;;;;;;;19.07;13.00;;;;;;;11.38;79.54;100830.69;5016536;28;20433;-74
2023/04/08 06:42:01;;;;;;;15.70;12.95;;;;;;;11.36;79.66;100828.22;5014743;28;20389;-74
2023/04/08 06:44:26;;;;;;;18.30;14.07;;;;;;;11.35;79.77;100842.03;5030189;28;20887;-74
2023/04/08 06:46:51;;;;;;;16.67;13.57;;;;;;;11.41;79.69;100846.50;5032648;28;20411;-74
2023/04/08 06:49:16;;;;;;;18.37;13.43;;;;;;;11.54;79.37;100850.81;5028219;28;20399;-75
2023/04/08 06:51:42;;;;;;;18.63;13.33;;;;;;;11.59;78.98;100849.00;5018864;28;20415;-74
2023/04/08 06:54:09;;;;;;;17.10;12.80;;;;;;;11.53;79.00;100854.56;5025940;28;20411;-74
2023/04/08 06:56:34;;;;;;;18.63;12.95;;;;;;;11.56;79.00;100843.28;5029482;28;20759;-74
2023/04/08 06:59:00;;;;;;;16.55;12.85;;;;;;;11.64;78.98;100849.13;5029488;28;20408;-74
2023/04/08 07:01:25;;;;;;;19.87;13.60;;;;;;;11.68;78.61;100850.28;5023569;28;20452;-74
2023/04/08 07:03:50;;;;;;;18.17;12.90;;;;;;;11.83;78.08;100861.47;5015884;28;20955;-73
2023/04/08 07:06:16;;;;;;;18.40;11.93;;;;;;;11.94;77.74;100851.63;5021713;28;20410;-73
2023/04/08 07:08:41;;;;;;;15.30;12.03;;;;;;;12.03;77.00;100852.84;5025295;28;20405;-73
2023/04/08 07:11:07;;;;;;;15.00;11.23;;;;;;;12.15;76.56;100852.81;5027662;28;20767;-73
2023/04/08 07:13:32;;;;;;;15.87;11.10;;;;;;;12.17;75.59;100862.34;5020520;28;20464;-73
2023/04/08 07:15:57;;;;;;;12.57;9.85;;;;;;;12.13;75.26;100857.63;5021151;28;20886;-76
2023/04/08 07:18:22;;;;;;;15.73;10.97;;;;;;;12.09;75.04;100865.44;5031767;28;20457;-74
2023/04/08 07:20:54;;;;;;;12.20;9.47;;;;;;;12.17;74.50;100867.78;5033942;28;20493;-74
2023/04/08 07:23:20;;;;;;;14.07;10.10;;;;;;;12.23;74.08;100863.25;5023669;28;20408;-74
2023/04/08 07:25:46;;;;;;;13.20;9.40;;;;;;;12.23;73.88;100869.50;5017339;28;20427;-74
2023/04/08 07:28:11;;;;;;;13.80;9.38;;;;;;;12.24;73.22;100864.91;5024249;28;20419;-74
2023/04/08 07:30:37;;;;;;;13.47;9.00;;;;;;;12.34;73.14;100873.22;5018267;28;20479;-74
2023/04/08 07:33:02;;;;;;;13.17;9.20;;;;;;;12.36;72.73;100869.19;5041743;28;20925;-74
2023/04/08 07:35:27;;;;;;;13.90;9.87;;;;;;;12.41;72.53;100868.47;5016312;28;20420;-76
2023/04/08 07:37:53;;;;;;;12.85;8.98;;;;;;;12.46;72.26;100873.97;5030567;28;20427;-75
2023/04/08 07:40:19;;;;;;;15.90;9.70;;;;;;;12.51;71.65;100874.06;5032962;28;20873;-75
2023/04/08 07:42:44;;;;;;;10.57;7.93;;;;;;;12.60;70.92;100874.47;5027698;28;20823;-75
2023/04/08 07:45:10;;;;;;;11.60;8.93;;;;;;;12.59;70.66;100870.09;5048223;28;20441;-75
2023/04/08 07:47:35;;;;;;;10.25;8.32;;;;;;;12.62;70.58;100877.75;5024924;28;20403;-76
2023/04/08 07:50:01;;;;;;;10.70;8.33;;;;;;;12.60;70.35;100879.91;5023403;28;20807;-75
2023/04/08 07:52:26;;;;;;;12.20;9.00;;;;;;;12.67;70.49;100875.13;5031608;28;20403;-74
2023/04/08 07:54:52;;;;;;;11.53;8.00;;;;;;;12.72;70.16;100883.34;5014908;28;20788;-75
2023/04/08 07:57:17;;;;;;;11.57;7.83;;;;;;;12.71;69.50;100885.25;5031567;28;20490;-75
2023/04/08 07:59:42;;;;;;;11.23;7.53;;;;;;;12.74;68.89;100892.09;5042357;28;20411;-74
2023/04/08 08:02:08;;;;;;;10.60;7.37;;;;;;;12.76;68.36;100887.22;5019023;28;20482;-74
2023/04/08 08:04:33;;;;;;;10.13;7.80;;;;;;;12.65;68.31;100888.13;5032771;28;20478;-75
2023/04/08 08:06:58;;;;;;;10.27;8.05;;;;;;;12.64;68.54;100889.22;5041784;28;20926;-75
2023/04/08 08:09:24;;;;;;;9.37;6.93;;;;;;;12.70;68.41;100890.94;5027488;28;20380;-75
2023/04/08 08:11:49;;;;;;;11.25;7.65;;;;;;;12.81;68.12;100890.84;5022330;28;20385;-75
2023/04/08 08:14:15;;;;;;;11.43;8.27;;;;;;;13.15;67.12;100896.25;5029694;28;20496;-75
2023/04/08 08:16:40;;;;;;;8.90;7.10;;;;;;;13.29;66.32;100903.00;5058638;28;20509;-76
2023/04/08 08:19:07;;;;;;;11.00;7.10;;;;;;;13.37;65.70;100900.63;5027744;28;20529;-74
2023/04/08 08:21:35;;;;;;;9.82;8.32;;;;;;;13.47;65.13;100898.06;5012502;28;20951;-75
2023/04/08 08:24:00;;;;;;;9.27;7.35;;;;;;;13.58;64.66;100900.91;5026798;28;20454;-75
2023/04/08 08:26:26;;;;;;;8.97;7.47;;;;;;;13.82;63.54;100899.56;5016047;28;20416;-74
2023/04/08 08:28:51;;;;;;;9.35;7.90;;;;;;;13.66;63.58;100895.84;5026372;28;20404;-75
2023/04/08 08:31:16;;;;;;;9.90;7.90;;;;;;;13.67;64.18;100894.75;5014369;28;20757;-74
2023/04/08 08:33:41;;;;;;;11.40;9.10;;;;;;;13.59;63.98;100897.13;5025316;28;20394;-74
2023/04/08 08:36:07;;;;;;;11.83;8.33;;;;;;;13.55;63.65;100901.41;5028790;28;20396;-74
2023/04/08 08:38:32;;;;;;;12.57;7.93;;;;;;;13.58;63.64;100903.63;5012413;28;20849;-74
2023/04/08 08:40:59;;;;;;;12.27;7.70;;;;;;;13.82;63.10;100911.28;5025979;28;20540;-74
2023/04/08 08:43:25;;;;;;;12.40;8.43;;;;;;;14.01;62.74;100906.31;5038447;28;20391;-75
2023/04/08 08:45:50;;;;;;;10.45;7.72;;;;;;;14.15;62.15;100914.91;5015895;28;20472;-75
2023/04/08 08:48:16;;;;;;;9.97;7.70;;;;;;;14.26;62.12;100916.66;5027211;28;20492;-74
2023/04/08 08:50:42;;;;;;;9.68;7.85;;;;;;;14.38;61.76;100914.63;5014074;28;20404;-74
2023/04/08 08:53:07;;;;;;;10.57;7.75;;;;;;;14.47;61.72;100911.16;5016963;28;20765;-74
2023/04/08 08:55:33;;;;;;;8.00;7.20;;;;;;;14.39;60.73;100916.28;5018093;28;20411;-72
2023/04/08 08:57:59;;;;;;;8.35;7.13;;;;;;;14.60;60.58;100917.25;5017761;28;20397;-73
2023/04/08 09:00:35;;;;;;;14.77;8.67;;;;;;;14.78;59.75;100911.41;5026941;28;20900;-73
2023/04/08 09:03:19;;;;;;;13.77;8.80;;;;;;;15.02;58.97;100918.09;5023471;28;20391;-72
2023/04/08 09:05:59;;;;;;;14.50;8.65;;;;;;;14.90;58.63;100926.50;5030680;28;20927;-73
2023/04/08 09:08:31;;;;;;;10.82;8.93;;;;;;;15.00;58.13;100920.28;5025964;28;20490;-73
2023/04/08 09:11:17;;;;;;;12.23;8.27;;;;;;;15.81;56.51;100924.28;5019505;28;20423;-72
2023/04/08 09:13:43;;;;;;;10.10;7.82;;;;;;;16.12;55.46;100927.94;5029293;28;20401;-73
2023/04/08 09:16:11;;;;;;;9.35;8.00;;;;;;;16.01;55.53;100923.53;5031436;28;20438;-73
2023/04/08 09:18:37;;;;;;;13.93;8.60;;;;;;;15.70;55.57;100933.56;5020334;28;20405;-73
2023/04/08 09:21:06;;;;;;;9.43;7.78;;;;;;;15.25;56.31;100927.81;5024637;28;20419;-73
2023/04/08 09:23:44;;;;;;;9.07;8.17;;;;;;;15.00;56.72;100920.28;5025496;28;20448;-73
2023/04/08 09:26:15;;;;;;;11.95;8.90;;;;;;;14.75;57.75;100928.31;5032277;28;20925;-72
2023/04/08 09:28:41;;;;;;;9.00;8.10;;;;;;;15.05;57.79;100928.50;5016354;28;20487;-73
2023/04/08 09:31:27;;;;;;;9.57;7.85;;;;;;;15.66;56.23;100918.78;5034978;28;20993;-72
2023/04/08 09:33:56;;;;;;;8.95;7.70;;;;;;;16.17;54.98;100917.00;5035385;28;20404;-74
2023/04/08 09:36:21;;;;;;;8.80;7.45;;;;;;;16.75;52.94;100918.47;5028220;28;20402;-75
2023/04/08 09:38:47;;;;;;;10.13;7.85;;;;;;;17.09;51.83;100919.50;5034563;28;20394;-72
2023/04/08 09:41:15;;;;;;;8.20;7.40;;;;;;;17.13;51.24;100917.84;5022393;28;20431;-72
2023/04/08 09:43:48;;;;;;;9.07;7.60;;;;;;;16.91;51.06;100919.25;5023239;28;20396;-73
2023/04/08 09:46:16;;;;;;;8.43;7.18;;;;;;;17.29;51.07;100923.31;5033775;28;20390;-72
2023/04/08 09:49:01;;;;;;;10.93;8.15;;;;;;;17.56;49.63;100919.13;5030723;28;20415;-73
2023/04/08 09:51:32;;;;;;;9.13;7.90;;;;;;;17.48;50.32;100921.59;5023459;28;20387;-73
2023/04/08 09:54:04;;;;;;;8.98;7.47;;;;;;;18.44;48.53;100919.19;5021459;28;20404;-73
2023/04/08 09:56:39;;;;;;;8.63;7.72;;;;;;;19.45;45.98;100920.22;5032549;28;20403;-73
2023/04/08 09:59:12;;;;;;;758.35;691.10;;;;;;;19.58;44.96;100919.50;5029433;28;20878;-73
2023/04/08 10:01:42;;;;;;;1999.90;999.90;;;;;;;19.00;46.07;100919.56;5019816;28;20544;-74
2023/04/08 10:04:13;;;;;;;1999.90;999.90;;;;;;;18.17;46.70;100923.50;5017655;28;20529;-74
2023/04/08 10:06:40;;;;;;;1999.90;999.90;;;;;;;17.50;47.77;100922.97;5011288;28;20410;-73
2023/04/08 10:09:06;;;;;;;1999.90;999.90;;;;;;;17.53;47.93;100932.53;5015482;28;20910;-73
2023/04/08 10:11:32;;;;;;;1999.90;999.90;;;;;;;17.56;47.82;100929.25;5017266;28;20427;-73
2023/04/08 10:13:58;;;;;;;1999.90;999.90;;;;;;;17.47;47.17;100926.25;5014325;28;20402;-73
2023/04/08 10:16:26;;;;;;;1999.90;999.90;;;;;;;17.19;47.25;100921.38;5012999;28;20411;-73
2023/04/08 10:18:54;;;;;;;1999.90;999.90;;;;;;;17.21;47.79;100923.88;5015468;28;20505;-73
2023/04/08 10:21:47;;;;;;;1999.90;999.90;;;;;;;17.33;47.82;100927.94;5025719;28;20511;-73
2023/04/08 10:24:13;;;;;;;1999.90;999.90;;;;;;;17.47;47.33;100918.03;5029221;28;20399;-72
2023/04/08 10:26:42;;;;;;;1999.90;999.90;;;;;;;17.65;47.34;100921.31;5033857;28;20947;-73
2023/04/08 10:35:54;;;;;;;1999.90;999.90;;;;;;;18.97;43.71;100916.56;5032364;28;20466;-73
2023/04/08 10:38:20;;;;;;;1999.90;999.90;;;;;;;18.27;44.82;100921.50;5028414;28;20404;-73
2023/04/08 10:40:48;;;;;;;1999.90;999.90;;;;;;;18.01;45.29;100914.53;5049153;28;20446;-73
2023/04/08 10:43:14;;;;;;;1999.90;999.90;;;;;;;18.92;43.69;100916.63;5029764;28;20399;-74
2023/04/08 10:45:41;;;;;;;1999.90;999.90;;;;;;;18.91;42.71;100918.53;5042425;28;20504;-73
2023/04/08 10:48:27;;;;;;;608.85;574.53;;;;;;;18.51;42.80;100927.94;5031125;28;20399;-72
2023/04/08 10:51:00;;;;;;;10.25;8.50;;;;;;;18.28;41.65;100919.56;5014566;28;20401;-72
2023/04/08 10:53:36;;;;;;;8.32;7.20;;;;;;;18.07;41.79;100908.75;5028263;28;20398;-73
2023/04/08 10:56:14;;;;;;;12.32;8.27;;;;;;;18.00;40.70;100907.41;5030615;28;21600;-73
2023/04/08 10:58:49;;;;;;;9.75;8.05;;;;;;;17.81;41.09;100904.50;5022120;28;20395;-73
2023/04/08 11:01:15;;;;;;;9.55;7.85;;;;;;;17.56;41.42;100915.56;5028849;28;20423;-72
2023/04/08 11:03:41;;;;;;;9.07;7.40;;;;;;;17.43;41.97;100910.66;5032644;28;20502;-72
2023/04/08 11:06:07;;;;;;;10.07;7.10;;;;;;;17.87;41.64;100916.25;5018859;28;20441;-72
2023/04/08 11:08:33;;;;;;;9.07;8.17;;;;;;;18.01;40.87;100903.56;5024253;28;20488;-72
2023/04/08 11:11:03;;;;;;;11.48;8.60;;;;;;;17.97;40.87;100906.06;5022850;28;20460;-73
2023/04/08 11:13:29;;;;;;;10.03;8.07;;;;;;;17.73;40.50;100904.25;5028926;28;20399;-73
2023/04/08 11:15:59;;;;;;;10.37;8.27;;;;;;;17.45;39.88;100908.47;5020151;28;20407;-72
2023/04/08 11:18:25;;;;;;;10.37;8.20;;;;;;;17.13;40.38;100906.91;5033226;28;20440;-72
2023/04/08 11:20:51;;;;;;;10.53;8.33;;;;;;;16.94;40.89;100911.31;5024697;28;20419;-72